sensor_id;sensor_type;location;lat;lon;timestamp;pressure;altitude;pressure_sealevel;temperature;humidity
59417;BME280;45222;52.458;20.914;2023-03-15T00:02:34;98866.22;;;9.06;79.10
59417;BME280;45222;52.458;20.914;2023-03-15T00:06:19;98873.31;;;9.08;79.10
59417;BME280;45222;52.458;20.914;2023-03-15T00:10:05;98875.92;;;9.09;78.98
59417;BME280;45222;52.458;20.914;2023-03-15T00:13:50;98880.94;;;9.08;78.75
59417;BME280;45222;52.458;20.914;2023-03-15T00:17:35;98890.67;;;9.09;79.00
59417;BME280;45222;52.458;20.914;2023-03-15T00:21:20;98902.36;;;9.09;78.93
59417;BME280;45222;52.458;20.914;2023-03-15T00:25:07;98916.15;;;9.07;78.90
59417;BME280;45222;52.458;20.914;2023-03-15T00:28:52;98933.94;;;9.03;79.15
59417;BME280;45222;52.458;20.914;2023-03-15T00:32:37;98976.51;;;8.89;77.77
59417;BME280;45222;52.458;20.914;2023-03-15T00:36:22;99014.13;;;8.42;76.60
59417;BME280;45222;52.458;20.914;2023-03-15T00:40:10;99041.05;;;7.79;76.32
59417;BME280;45222;52.458;20.914;2023-03-15T00:43:55;99055.95;;;7.26;77.12
59417;BME280;45222;52.458;20.914;2023-03-15T00:47:40;99089.09;;;6.72;77.67
59417;BME280;45222;52.458;20.914;2023-03-15T00:51:25;99108.91;;;6.24;76.82
59417;BME280;45222;52.458;20.914;2023-03-15T00:55:12;99124.72;;;5.81;77.07
59417;BME280;45222;52.458;20.914;2023-03-15T00:58:58;99143.52;;;5.38;78.08
59417;BME280;45222;52.458;20.914;2023-03-15T01:02:43;99165.25;;;4.82;79.13
59417;BME280;45222;52.458;20.914;2023-03-15T01:06:28;99190.27;;;4.15;80.01
59417;BME280;45222;52.458;20.914;2023-03-15T01:13:59;99238.93;;;3.35;80.32
59417;BME280;45222;52.458;20.914;2023-03-15T01:17:46;99248.73;;;3.17;79.87
59417;BME280;45222;52.458;20.914;2023-03-15T01:21:31;99259.16;;;3.05;79.80
59417;BME280;45222;52.458;20.914;2023-03-15T01:25:16;99281.40;;;2.97;79.44
59417;BME280;45222;52.458;20.914;2023-03-15T01:29:01;99313.86;;;2.93;79.04
59417;BME280;45222;52.458;20.914;2023-03-15T01:32:46;99327.64;;;2.85;78.94
59417;BME280;45222;52.458;20.914;2023-03-15T01:36:31;99339.96;;;2.74;79.00
59417;BME280;45222;52.458;20.914;2023-03-15T01:40:17;99358.48;;;2.65;79.49
59417;BME280;45222;52.458;20.914;2023-03-15T01:44:02;99360.17;;;2.57;79.99
59417;BME280;45222;52.458;20.914;2023-03-15T01:47:47;99383.03;;;2.49;79.97
59417;BME280;45222;52.458;20.914;2023-03-15T01:51:35;99415.03;;;2.42;80.56
59417;BME280;45222;52.458;20.914;2023-03-15T01:55:20;99416.36;;;2.32;81.14
59417;BME280;45222;52.458;20.914;2023-03-15T01:59:07;99420.95;;;2.26;81.17
59417;BME280;45222;52.458;20.914;2023-03-15T02:02:59;99433.16;;;2.22;81.61
59417;BME280;45222;52.458;20.914;2023-03-15T02:06:47;99444.16;;;2.18;82.04
59417;BME280;45222;52.458;20.914;2023-03-15T02:10:36;99465.12;;;2.21;82.13
59417;BME280;45222;52.458;20.914;2023-03-15T02:14:21;99470.52;;;2.22;81.89
59417;BME280;45222;52.458;20.914;2023-03-15T02:18:06;99477.48;;;2.18;81.72
59417;BME280;45222;52.458;20.914;2023-03-15T02:21:56;99476.58;;;2.19;81.59
59417;BME280;45222;52.458;20.914;2023-03-15T02:25:47;99494.73;;;2.21;81.60
59417;BME280;45222;52.458;20.914;2023-03-15T02:29:35;99513.76;;;2.26;81.83
59417;BME280;45222;52.458;20.914;2023-03-15T02:33:23;99523.50;;;2.29;81.63
59417;BME280;45222;52.458;20.914;2023-03-15T02:37:09;99527.54;;;2.28;81.52
59417;BME280;45222;52.458;20.914;2023-03-15T02:40:54;99529.17;;;2.26;81.45
59417;BME280;45222;52.458;20.914;2023-03-15T02:44:41;99542.49;;;2.26;81.33
59417;BME280;45222;52.458;20.914;2023-03-15T02:48:27;99548.27;;;2.27;81.28
59417;BME280;45222;52.458;20.914;2023-03-15T02:52:14;99564.00;;;2.29;81.38
59417;BME280;45222;52.458;20.914;2023-03-15T02:55:59;99571.81;;;2.32;81.45
59417;BME280;45222;52.458;20.914;2023-03-15T02:59:44;99580.11;;;2.31;81.53
59417;BME280;45222;52.458;20.914;2023-03-15T03:03:29;99591.83;;;2.32;81.25
59417;BME280;45222;52.458;20.914;2023-03-15T03:07:14;99609.14;;;2.34;81.16
59417;BME280;45222;52.458;20.914;2023-03-15T03:10:59;99616.80;;;2.36;81.13
59417;BME280;45222;52.458;20.914;2023-03-15T03:14:45;99632.92;;;2.36;81.09
59417;BME280;45222;52.458;20.914;2023-03-15T03:18:30;99638.36;;;2.37;80.90
59417;BME280;45222;52.458;20.914;2023-03-15T03:22:19;99646.14;;;2.41;81.05
59417;BME280;45222;52.458;20.914;2023-03-15T03:26:13;99659.17;;;2.46;81.14
59417;BME280;45222;52.458;20.914;2023-03-15T03:30:00;99672.34;;;2.46;81.09
59417;BME280;45222;52.458;20.914;2023-03-15T03:33:45;99679.13;;;2.48;80.95
59417;BME280;45222;52.458;20.914;2023-03-15T03:37:30;99678.99;;;2.47;81.12
59417;BME280;45222;52.458;20.914;2023-03-15T03:41:15;99684.83;;;2.52;81.12
59417;BME280;45222;52.458;20.914;2023-03-15T03:45:00;99701.70;;;2.58;81.49
59417;BME280;45222;52.458;20.914;2023-03-15T03:48:45;99700.00;;;2.62;81.47
59417;BME280;45222;52.458;20.914;2023-03-15T03:52:30;99701.54;;;2.64;81.40
59417;BME280;45222;52.458;20.914;2023-03-15T03:56:15;99696.41;;;2.65;80.90
59417;BME280;45222;52.458;20.914;2023-03-15T04:00:00;99704.95;;;2.61;80.84
59417;BME280;45222;52.458;20.914;2023-03-15T04:03:45;99719.60;;;2.58;80.98
59417;BME280;45222;52.458;20.914;2023-03-15T04:07:30;99717.81;;;2.59;80.98
59417;BME280;45222;52.458;20.914;2023-03-15T04:11:17;99716.45;;;2.64;81.13
59417;BME280;45222;52.458;20.914;2023-03-15T04:15:03;99715.19;;;2.66;80.79
59417;BME280;45222;52.458;20.914;2023-03-15T04:18:48;99735.06;;;2.64;80.56
59417;BME280;45222;52.458;20.914;2023-03-15T04:22:34;99751.77;;;2.63;80.46
59417;BME280;45222;52.458;20.914;2023-03-15T04:26:18;99766.70;;;2.62;80.47
59417;BME280;45222;52.458;20.914;2023-03-15T04:30:05;99776.52;;;2.63;80.55
59417;BME280;45222;52.458;20.914;2023-03-15T04:33:51;99785.42;;;2.65;80.64
59417;BME280;45222;52.458;20.914;2023-03-15T04:37:36;99787.60;;;2.69;80.45
59417;BME280;45222;52.458;20.914;2023-03-15T04:41:21;99793.07;;;2.69;80.16
59417;BME280;45222;52.458;20.914;2023-03-15T04:45:10;99796.61;;;2.67;80.05
59417;BME280;45222;52.458;20.914;2023-03-15T04:48:55;99794.84;;;2.67;80.09
59417;BME280;45222;52.458;20.914;2023-03-15T04:52:41;99799.66;;;2.71;80.24
59417;BME280;45222;52.458;20.914;2023-03-15T04:56:26;99802.80;;;2.72;80.16
59417;BME280;45222;52.458;20.914;2023-03-15T05:00:16;99810.19;;;2.71;79.70
59417;BME280;45222;52.458;20.914;2023-03-15T05:04:01;99815.91;;;2.67;79.58
59417;BME280;45222;52.458;20.914;2023-03-15T05:07:46;99820.38;;;2.64;79.55
59417;BME280;45222;52.458;20.914;2023-03-15T05:11:32;99824.53;;;2.66;79.61
59417;BME280;45222;52.458;20.914;2023-03-15T05:15:17;99837.85;;;2.68;79.55
59417;BME280;45222;52.458;20.914;2023-03-15T05:19:02;99840.25;;;2.70;79.50
59417;BME280;45222;52.458;20.914;2023-03-15T05:22:48;99852.10;;;2.74;78.72
59417;BME280;45222;52.458;20.914;2023-03-15T05:26:33;99865.63;;;2.74;78.36
59417;BME280;45222;52.458;20.914;2023-03-15T05:30:18;99871.02;;;2.68;78.01
59417;BME280;45222;52.458;20.914;2023-03-15T05:34:04;99883.91;;;2.65;76.74
59417;BME280;45222;52.458;20.914;2023-03-15T05:37:49;99887.38;;;2.59;75.75
59417;BME280;45222;52.458;20.914;2023-03-15T05:41:34;99889.82;;;2.53;75.76
59417;BME280;45222;52.458;20.914;2023-03-15T05:45:19;99900.18;;;2.45;75.26
59417;BME280;45222;52.458;20.914;2023-03-15T05:49:04;99908.31;;;2.42;75.51
59417;BME280;45222;52.458;20.914;2023-03-15T05:52:51;99918.48;;;2.43;75.70
59417;BME280;45222;52.458;20.914;2023-03-15T05:56:36;99923.67;;;2.46;75.73
59417;BME280;45222;52.458;20.914;2023-03-15T06:00:22;99931.16;;;2.49;75.32
59417;BME280;45222;52.458;20.914;2023-03-15T06:04:07;99939.44;;;2.48;74.96
59417;BME280;45222;52.458;20.914;2023-03-15T06:07:52;99946.59;;;2.48;75.04
59417;BME280;45222;52.458;20.914;2023-03-15T06:11:37;99948.70;;;2.49;74.78
59417;BME280;45222;52.458;20.914;2023-03-15T06:15:22;99955.40;;;2.48;74.31
59417;BME280;45222;52.458;20.914;2023-03-15T06:19:07;99956.81;;;2.47;74.34
59417;BME280;45222;52.458;20.914;2023-03-15T06:22:52;99966.29;;;2.48;74.03
59417;BME280;45222;52.458;20.914;2023-03-15T06:26:37;99973.98;;;2.49;74.20
59417;BME280;45222;52.458;20.914;2023-03-15T06:30:23;99986.55;;;2.52;74.27
59417;BME280;45222;52.458;20.914;2023-03-15T06:34:11;99994.11;;;2.51;73.63
59417;BME280;45222;52.458;20.914;2023-03-15T06:37:56;99992.39;;;2.50;73.51
59417;BME280;45222;52.458;20.914;2023-03-15T06:41:41;99994.52;;;2.49;73.63
59417;BME280;45222;52.458;20.914;2023-03-15T06:45:27;100005.46;;;2.54;73.67
59417;BME280;45222;52.458;20.914;2023-03-15T06:49:13;100020.59;;;2.61;73.21
59417;BME280;45222;52.458;20.914;2023-03-15T06:52:58;100029.68;;;2.62;73.22
59417;BME280;45222;52.458;20.914;2023-03-15T06:56:43;100042.23;;;2.66;72.77
59417;BME280;45222;52.458;20.914;2023-03-15T07:00:28;100051.11;;;2.71;72.38
59417;BME280;45222;52.458;20.914;2023-03-15T07:04:14;100059.75;;;2.77;72.11
59417;BME280;45222;52.458;20.914;2023-03-15T07:07:59;100063.29;;;2.84;71.65
59417;BME280;45222;52.458;20.914;2023-03-15T07:11:56;100072.17;;;2.79;71.06
59417;BME280;45222;52.458;20.914;2023-03-15T07:15:42;100068.97;;;2.73;71.43
59417;BME280;45222;52.458;20.914;2023-03-15T07:19:27;100078.12;;;2.72;71.70
59417;BME280;45222;52.458;20.914;2023-03-15T07:23:12;100073.20;;;2.73;72.23
59417;BME280;45222;52.458;20.914;2023-03-15T07:26:57;100083.38;;;2.81;72.54
59417;BME280;45222;52.458;20.914;2023-03-15T07:30:41;100098.40;;;2.86;72.45
59417;BME280;45222;52.458;20.914;2023-03-15T07:34:26;100105.14;;;2.81;72.26
59417;BME280;45222;52.458;20.914;2023-03-15T07:38:11;100108.91;;;2.77;72.10
59417;BME280;45222;52.458;20.914;2023-03-15T07:41:57;100109.36;;;2.81;71.92
59417;BME280;45222;52.458;20.914;2023-03-15T07:45:42;100119.39;;;2.81;70.85
59417;BME280;45222;52.458;20.914;2023-03-15T07:49:28;100118.94;;;2.77;70.47
59417;BME280;45222;52.458;20.914;2023-03-15T07:53:14;100129.06;;;2.72;70.57
59417;BME280;45222;52.458;20.914;2023-03-15T07:56:59;100121.48;;;2.73;70.98
59417;BME280;45222;52.458;20.914;2023-03-15T08:00:44;100122.85;;;2.83;70.25
59417;BME280;45222;52.458;20.914;2023-03-15T08:04:29;100131.38;;;2.78;69.62
59417;BME280;45222;52.458;20.914;2023-03-15T08:08:14;100134.29;;;2.82;69.50
59417;BME280;45222;52.458;20.914;2023-03-15T08:11:59;100144.42;;;2.93;69.40
59417;BME280;45222;52.458;20.914;2023-03-15T08:15:46;100148.30;;;3.01;69.33
59417;BME280;45222;52.458;20.914;2023-03-15T08:19:31;100157.20;;;3.05;69.73
59417;BME280;45222;52.458;20.914;2023-03-15T08:23:16;100163.80;;;3.17;69.62
59417;BME280;45222;52.458;20.914;2023-03-15T08:27:01;100173.05;;;3.35;69.68
59417;BME280;45222;52.458;20.914;2023-03-15T08:30:46;100180.39;;;3.53;69.56
59417;BME280;45222;52.458;20.914;2023-03-15T08:34:33;100191.99;;;3.69;69.25
59417;BME280;45222;52.458;20.914;2023-03-15T08:38:18;100204.71;;;3.89;68.58
59417;BME280;45222;52.458;20.914;2023-03-15T08:42:04;100201.27;;;4.08;68.23
59417;BME280;45222;52.458;20.914;2023-03-15T08:45:49;100205.14;;;4.30;67.89
59417;BME280;45222;52.458;20.914;2023-03-15T08:49:35;100200.65;;;4.40;66.91
59417;BME280;45222;52.458;20.914;2023-03-15T08:53:24;100204.83;;;4.49;66.83
59417;BME280;45222;52.458;20.914;2023-03-15T08:57:11;100214.14;;;4.63;66.89
59417;BME280;45222;52.458;20.914;2023-03-15T09:00:57;100220.56;;;4.67;65.71
59417;BME280;45222;52.458;20.914;2023-03-15T09:04:42;100228.02;;;4.65;65.90
59417;BME280;45222;52.458;20.914;2023-03-15T09:08:27;100232.90;;;4.66;65.29
59417;BME280;45222;52.458;20.914;2023-03-15T09:12:12;100240.97;;;4.75;65.32
59417;BME280;45222;52.458;20.914;2023-03-15T09:15:57;100246.42;;;4.82;64.73
59417;BME280;45222;52.458;20.914;2023-03-15T09:19:42;100245.77;;;4.86;64.41
59417;BME280;45222;52.458;20.914;2023-03-15T09:23:27;100251.91;;;4.87;64.20
59417;BME280;45222;52.458;20.914;2023-03-15T09:27:12;100259.71;;;4.85;64.01
59417;BME280;45222;52.458;20.914;2023-03-15T09:30:57;100264.55;;;4.82;64.29
59417;BME280;45222;52.458;20.914;2023-03-15T09:34:42;100264.92;;;4.88;64.16
59417;BME280;45222;52.458;20.914;2023-03-15T09:38:27;100266.05;;;5.06;64.65
59417;BME280;45222;52.458;20.914;2023-03-15T09:42:16;100267.42;;;5.26;64.31
59417;BME280;45222;52.458;20.914;2023-03-15T09:46:12;100270.52;;;5.34;63.17
59417;BME280;45222;52.458;20.914;2023-03-15T09:50:08;100278.13;;;5.28;62.31
59417;BME280;45222;52.458;20.914;2023-03-15T09:54:00;100263.23;;;5.25;62.03
59417;BME280;45222;52.458;20.914;2023-03-15T09:57:52;100264.34;;;5.22;62.21
59417;BME280;45222;52.458;20.914;2023-03-15T10:01:39;100263.51;;;5.27;62.08
59417;BME280;45222;52.458;20.914;2023-03-15T10:05:34;100266.64;;;5.28;61.98
59417;BME280;45222;52.458;20.914;2023-03-15T10:09:23;100259.14;;;5.26;61.65
59417;BME280;45222;52.458;20.914;2023-03-15T10:13:20;100261.33;;;5.36;61.19
59417;BME280;45222;52.458;20.914;2023-03-15T10:17:11;100263.73;;;5.44;60.32
59417;BME280;45222;52.458;20.914;2023-03-15T10:21:02;100269.54;;;5.44;60.61
59417;BME280;45222;52.458;20.914;2023-03-15T10:24:50;100273.12;;;5.37;60.01
59417;BME280;45222;52.458;20.914;2023-03-15T10:28:36;100280.55;;;5.16;59.03
59417;BME280;45222;52.458;20.914;2023-03-15T10:32:26;100274.17;;;4.98;59.19
59417;BME280;45222;52.458;20.914;2023-03-15T10:36:15;100277.64;;;5.00;58.78
59417;BME280;45222;52.458;20.914;2023-03-15T10:40:00;100279.72;;;5.08;58.94
59417;BME280;45222;52.458;20.914;2023-03-15T10:43:59;100276.48;;;5.17;59.47
59417;BME280;45222;52.458;20.914;2023-03-15T10:47:45;100272.81;;;5.29;59.74
59417;BME280;45222;52.458;20.914;2023-03-15T10:51:33;100272.29;;;5.34;59.41
59417;BME280;45222;52.458;20.914;2023-03-15T10:55:29;100270.71;;;5.41;59.13
59417;BME280;45222;52.458;20.914;2023-03-15T10:59:18;100271.43;;;5.53;59.37
59417;BME280;45222;52.458;20.914;2023-03-15T11:03:06;100265.31;;;5.56;59.25
59417;BME280;45222;52.458;20.914;2023-03-15T11:06:59;100280.75;;;5.53;58.19
59417;BME280;45222;52.458;20.914;2023-03-15T11:10:49;100283.20;;;5.54;58.85
59417;BME280;45222;52.458;20.914;2023-03-15T11:14:40;100281.52;;;5.52;57.92
59417;BME280;45222;52.458;20.914;2023-03-15T11:18:28;100276.73;;;5.40;58.19
59417;BME280;45222;52.458;20.914;2023-03-15T11:22:14;100289.95;;;5.40;58.67
59417;BME280;45222;52.458;20.914;2023-03-15T11:25:59;100284.45;;;5.48;58.37
59417;BME280;45222;52.458;20.914;2023-03-15T11:29:46;100284.92;;;5.68;57.53
59417;BME280;45222;52.458;20.914;2023-03-15T11:33:44;100277.98;;;5.88;57.11
59417;BME280;45222;52.458;20.914;2023-03-15T11:37:35;100278.14;;;6.06;56.19
59417;BME280;45222;52.458;20.914;2023-03-15T11:41:27;100283.52;;;6.32;56.77
59417;BME280;45222;52.458;20.914;2023-03-15T11:45:21;100287.64;;;6.57;56.66
59417;BME280;45222;52.458;20.914;2023-03-15T11:49:14;100278.19;;;6.64;56.03
59417;BME280;45222;52.458;20.914;2023-03-15T11:53:02;100281.51;;;6.66;55.10
59417;BME280;45222;52.458;20.914;2023-03-15T11:56:53;100280.61;;;6.77;55.78
59417;BME280;45222;52.458;20.914;2023-03-15T12:00:53;100277.21;;;6.94;54.12
59417;BME280;45222;52.458;20.914;2023-03-15T12:04:41;100275.85;;;6.87;54.76
59417;BME280;45222;52.458;20.914;2023-03-15T12:08:45;100284.88;;;6.87;54.86
59417;BME280;45222;52.458;20.914;2023-03-15T12:12:37;100296.98;;;6.68;54.22
59417;BME280;45222;52.458;20.914;2023-03-15T12:16:24;100300.30;;;6.36;55.19
59417;BME280;45222;52.458;20.914;2023-03-15T12:53:34;100347.39;;;5.42;57.56
59417;BME280;45222;52.458;20.914;2023-03-15T12:57:23;100349.33;;;5.35;57.88
59417;BME280;45222;52.458;20.914;2023-03-15T13:01:10;100355.96;;;5.31;57.50
59417;BME280;45222;52.458;20.914;2023-03-15T13:05:21;100361.17;;;5.27;57.69
59417;BME280;45222;52.458;20.914;2023-03-15T13:09:13;100363.83;;;5.28;57.89
59417;BME280;45222;52.458;20.914;2023-03-15T13:13:15;100370.48;;;5.28;58.07
59417;BME280;45222;52.458;20.914;2023-03-15T13:17:08;100374.80;;;5.26;58.60
59417;BME280;45222;52.458;20.914;2023-03-15T13:21:10;100376.56;;;5.26;59.04
59417;BME280;45222;52.458;20.914;2023-03-15T13:25:02;100383.02;;;5.35;59.32
59417;BME280;45222;52.458;20.914;2023-03-15T13:28:57;100389.20;;;5.41;59.50
59417;BME280;45222;52.458;20.914;2023-03-15T13:32:43;100402.64;;;5.34;59.32
59417;BME280;45222;52.458;20.914;2023-03-15T13:36:39;100399.20;;;5.23;59.17
59417;BME280;45222;52.458;20.914;2023-03-15T13:40:24;100395.81;;;5.31;59.24
59417;BME280;45222;52.458;20.914;2023-03-15T13:44:16;100395.33;;;5.36;59.44
59417;BME280;45222;52.458;20.914;2023-03-15T13:48:04;100398.58;;;5.41;59.05
59417;BME280;45222;52.458;20.914;2023-03-15T13:51:51;100403.50;;;5.34;58.85
59417;BME280;45222;52.458;20.914;2023-03-15T13:55:36;100407.69;;;5.29;58.58
59417;BME280;45222;52.458;20.914;2023-03-15T13:59:22;100406.80;;;5.29;58.56
59417;BME280;45222;52.458;20.914;2023-03-15T14:03:13;100408.10;;;5.27;58.43
59417;BME280;45222;52.458;20.914;2023-03-15T14:07:14;100412.30;;;5.28;58.88
59417;BME280;45222;52.458;20.914;2023-03-15T14:11:06;100415.64;;;5.29;58.73
59417;BME280;45222;52.458;20.914;2023-03-15T14:14:53;100418.55;;;5.25;58.66
59417;BME280;45222;52.458;20.914;2023-03-15T14:18:40;100418.68;;;5.20;58.86
59417;BME280;45222;52.458;20.914;2023-03-15T14:22:28;100420.50;;;5.17;59.21
59417;BME280;45222;52.458;20.914;2023-03-15T14:26:17;100417.09;;;5.06;59.13
59417;BME280;45222;52.458;20.914;2023-03-15T14:30:16;100420.48;;;4.97;59.46
59417;BME280;45222;52.458;20.914;2023-03-15T14:34:08;100422.30;;;4.88;59.47
59417;BME280;45222;52.458;20.914;2023-03-15T14:38:08;100420.46;;;4.83;59.61
59417;BME280;45222;52.458;20.914;2023-03-15T14:42:01;100420.58;;;4.78;59.27
59417;BME280;45222;52.458;20.914;2023-03-15T14:45:50;100429.52;;;4.73;59.32
59417;BME280;45222;52.458;20.914;2023-03-15T14:49:35;100431.61;;;4.66;59.16
59417;BME280;45222;52.458;20.914;2023-03-15T14:53:23;100443.20;;;4.60;58.88
59417;BME280;45222;52.458;20.914;2023-03-15T14:57:09;100440.29;;;4.56;59.31
59417;BME280;45222;52.458;20.914;2023-03-15T15:00:55;100448.90;;;4.57;59.37
59417;BME280;45222;52.458;20.914;2023-03-15T15:04:41;100445.99;;;4.53;59.52
59417;BME280;45222;52.458;20.914;2023-03-15T15:08:27;100452.96;;;4.49;59.98
59417;BME280;45222;52.458;20.914;2023-03-15T15:12:13;100459.11;;;4.41;60.07
59417;BME280;45222;52.458;20.914;2023-03-15T15:15:58;100463.58;;;4.30;60.39
59417;BME280;45222;52.458;20.914;2023-03-15T15:19:43;100471.41;;;4.17;60.42
59417;BME280;45222;52.458;20.914;2023-03-15T15:23:30;100469.48;;;4.07;61.08
59417;BME280;45222;52.458;20.914;2023-03-15T15:27:15;100472.27;;;4.00;61.08
59417;BME280;45222;52.458;20.914;2023-03-15T15:31:00;100473.80;;;3.95;61.63
59417;BME280;45222;52.458;20.914;2023-03-15T15:34:46;100480.58;;;3.89;61.96
59417;BME280;45222;52.458;20.914;2023-03-15T15:38:33;100482.55;;;3.87;62.20
59417;BME280;45222;52.458;20.914;2023-03-15T15:42:22;100486.83;;;3.84;62.61
59417;BME280;45222;52.458;20.914;2023-03-15T15:46:09;100499.71;;;3.82;62.96
59417;BME280;45222;52.458;20.914;2023-03-15T15:49:56;100503.80;;;3.80;63.27
59417;BME280;45222;52.458;20.914;2023-03-15T15:53:46;100513.20;;;3.76;63.26
59417;BME280;45222;52.458;20.914;2023-03-15T15:57:31;100513.45;;;3.72;63.43
59417;BME280;45222;52.458;20.914;2023-03-15T16:01:17;100520.70;;;3.68;63.64
59417;BME280;45222;52.458;20.914;2023-03-15T16:05:02;100521.83;;;3.65;63.74
59417;BME280;45222;52.458;20.914;2023-03-15T16:08:49;100525.06;;;3.61;63.85
59417;BME280;45222;52.458;20.914;2023-03-15T16:12:36;100531.09;;;3.58;63.50
59417;BME280;45222;52.458;20.914;2023-03-15T16:16:21;100530.67;;;3.52;63.15
59417;BME280;45222;52.458;20.914;2023-03-15T16:20:09;100535.19;;;3.45;62.81
59417;BME280;45222;52.458;20.914;2023-03-15T16:23:57;100537.09;;;3.36;62.22
59417;BME280;45222;52.458;20.914;2023-03-15T16:27:45;100542.36;;;3.24;62.26
59417;BME280;45222;52.458;20.914;2023-03-15T16:31:30;100549.84;;;3.18;62.25
59417;BME280;45222;52.458;20.914;2023-03-15T16:35:18;100555.06;;;3.09;62.28
59417;BME280;45222;52.458;20.914;2023-03-15T16:39:03;100550.98;;;3.00;62.49
59417;BME280;45222;52.458;20.914;2023-03-15T16:42:51;100550.95;;;2.90;62.75
59417;BME280;45222;52.458;20.914;2023-03-15T16:46:36;100557.75;;;2.80;62.86
59417;BME280;45222;52.458;20.914;2023-03-15T16:50:21;100562.80;;;2.70;63.24
59417;BME280;45222;52.458;20.914;2023-03-15T16:54:08;100568.19;;;2.61;63.35
59417;BME280;45222;52.458;20.914;2023-03-15T16:57:53;100574.63;;;2.51;63.59
59417;BME280;45222;52.458;20.914;2023-03-15T17:01:38;100579.14;;;2.40;63.78
59417;BME280;45222;52.458;20.914;2023-03-15T17:05:23;100581.70;;;2.31;63.90
59417;BME280;45222;52.458;20.914;2023-03-15T17:09:14;100589.35;;;2.21;64.21
59417;BME280;45222;52.458;20.914;2023-03-15T17:13:01;100595.77;;;2.13;64.54
59417;BME280;45222;52.458;20.914;2023-03-15T17:16:49;100593.58;;;2.02;64.66
59417;BME280;45222;52.458;20.914;2023-03-15T17:20:34;100599.80;;;1.95;65.02
59417;BME280;45222;52.458;20.914;2023-03-15T17:24:21;100604.17;;;1.95;66.17
59417;BME280;45222;52.458;20.914;2023-03-15T17:28:07;100607.86;;;1.95;66.45
59417;BME280;45222;52.458;20.914;2023-03-15T17:31:52;100612.95;;;1.95;66.32
59417;BME280;45222;52.458;20.914;2023-03-15T17:35:43;100615.61;;;1.91;66.16
59417;BME280;45222;52.458;20.914;2023-03-15T17:39:31;100615.13;;;1.85;66.37
59417;BME280;45222;52.458;20.914;2023-03-15T17:43:16;100619.09;;;1.74;66.42
59417;BME280;45222;52.458;20.914;2023-03-15T17:47:02;100622.83;;;1.65;66.77
59417;BME280;45222;52.458;20.914;2023-03-15T17:50:47;100626.09;;;1.52;66.85
59417;BME280;45222;52.458;20.914;2023-03-15T17:54:40;100626.89;;;1.37;66.88
59417;BME280;45222;52.458;20.914;2023-03-15T17:58:26;100633.82;;;1.20;67.19
59417;BME280;45222;52.458;20.914;2023-03-15T18:02:14;100636.91;;;1.03;67.44
59417;BME280;45222;52.458;20.914;2023-03-15T18:06:01;100635.91;;;0.87;68.03
59417;BME280;45222;52.458;20.914;2023-03-15T18:09:49;100638.07;;;0.78;68.96
59417;BME280;45222;52.458;20.914;2023-03-15T18:13:34;100641.94;;;0.73;69.53
59417;BME280;45222;52.458;20.914;2023-03-15T18:17:19;100643.70;;;0.68;69.97
59417;BME280;45222;52.458;20.914;2023-03-15T18:21:05;100646.17;;;0.63;70.03
59417;BME280;45222;52.458;20.914;2023-03-15T18:24:55;100646.18;;;0.60;70.06
59417;BME280;45222;52.458;20.914;2023-03-15T18:28:40;100656.89;;;0.52;70.06
59417;BME280;45222;52.458;20.914;2023-03-15T18:32:28;100662.14;;;0.48;70.04
59417;BME280;45222;52.458;20.914;2023-03-15T18:36:13;100663.55;;;0.42;69.99
59417;BME280;45222;52.458;20.914;2023-03-15T18:39:59;100664.79;;;0.33;70.13
59417;BME280;45222;52.458;20.914;2023-03-15T18:43:45;100667.95;;;0.22;70.21
59417;BME280;45222;52.458;20.914;2023-03-15T18:47:33;100676.88;;;0.12;70.56
59417;BME280;45222;52.458;20.914;2023-03-15T18:51:19;100684.77;;;0.06;70.54
59417;BME280;45222;52.458;20.914;2023-03-15T18:55:07;100691.22;;;-0.01;70.95
59417;BME280;45222;52.458;20.914;2023-03-15T18:58:53;100694.02;;;0.00;71.55
59417;BME280;45222;52.458;20.914;2023-03-15T19:02:39;100692.27;;;-0.00;71.84
59417;BME280;45222;52.458;20.914;2023-03-15T19:06:24;100691.23;;;0.08;72.00
59417;BME280;45222;52.458;20.914;2023-03-15T19:10:13;100696.11;;;0.12;71.87
59417;BME280;45222;52.458;20.914;2023-03-15T19:14:01;100699.45;;;0.11;71.93
59417;BME280;45222;52.458;20.914;2023-03-15T19:17:49;100702.59;;;0.04;71.83
59417;BME280;45222;52.458;20.914;2023-03-15T19:21:35;100707.13;;;-0.10;72.26
59417;BME280;45222;52.458;20.914;2023-03-15T19:25:23;100707.99;;;-0.20;72.28
59417;BME280;45222;52.458;20.914;2023-03-15T19:29:08;100720.21;;;-0.30;72.44
59417;BME280;45222;52.458;20.914;2023-03-15T19:32:54;100722.48;;;-0.34;72.70
59417;BME280;45222;52.458;20.914;2023-03-15T19:36:39;100723.70;;;-0.33;73.00
59417;BME280;45222;52.458;20.914;2023-03-15T19:40:24;100725.96;;;-0.36;73.10
59417;BME280;45222;52.458;20.914;2023-03-15T19:44:09;100727.20;;;-0.35;73.04
59417;BME280;45222;52.458;20.914;2023-03-15T19:47:55;100727.36;;;-0.37;73.05
59417;BME280;45222;52.458;20.914;2023-03-15T19:51:40;100731.20;;;-0.44;73.15
59417;BME280;45222;52.458;20.914;2023-03-15T19:55:25;100729.61;;;-0.50;73.05
59417;BME280;45222;52.458;20.914;2023-03-15T19:59:10;100729.39;;;-0.61;73.33
59417;BME280;45222;52.458;20.914;2023-03-15T20:02:55;100732.52;;;-0.71;73.46
59417;BME280;45222;52.458;20.914;2023-03-15T20:06:43;100731.95;;;-0.77;73.41
59417;BME280;45222;52.458;20.914;2023-03-15T20:10:29;100738.94;;;-0.80;73.82
59417;BME280;45222;52.458;20.914;2023-03-15T20:14:14;100744.02;;;-0.78;74.20
59417;BME280;45222;52.458;20.914;2023-03-15T20:18:00;100744.90;;;-0.76;74.16
59417;BME280;45222;52.458;20.914;2023-03-15T20:21:47;100746.46;;;-0.77;74.18
59417;BME280;45222;52.458;20.914;2023-03-15T20:25:32;100746.10;;;-0.78;74.42
59417;BME280;45222;52.458;20.914;2023-03-15T20:29:19;100746.27;;;-0.79;74.32